Raporty Pogodowe z Lotnisk

 

EPKK - Krakow/Balice, Poland
Odległość od stacji: Zd 81km
Aktualizacja: 19/08/2022 10:30
Bezchmurnie
Bezchmurnie
 Wiatr z varies
Wiatr: varies 6 km/h
Temperatura: 28°C
Heat Index: 29°C
Punkt Rosy: 19°C
Wilgotność Względna: 58%
Ciśnienie Względne: 1012 hPa
Podsumowanie: Bezchmurnie
Widoczność: większa niż 10 km
2022/08/19 08:30 EPKK 190830Z VRB03KT CAVOK 28/19 Q1012
EPRZ - Rzeszow/Jasionka, Poland
Odległość od stacji: Ws 81km
Aktualizacja: 19/08/2022 10:30
Bezchmurnie
Bezchmurnie
 Wiatr z Ws
Wiatr: Ws 17 km/h
Temperatura: 28°C
Heat Index: 29°C
Punkt Rosy: 18°C
Wilgotność Względna: 55%
Ciśnienie Względne: 1013 hPa
Podsumowanie: Bezchmurnie
Widoczność: większa niż 10 km
2022/08/19 08:30 EPRZ 190830Z 10009KT 070V130 CAVOK 28/18 Q1013
 
EPKT - Katowice/Pyrzowice, Poland
Odległość od stacji: ZdPnZd 141km
Aktualizacja: 19/08/2022 10:30
Bezchmurnie
Bezchmurnie
 Wiatr z PdPdWs
Wiatr: PdPdWs 13 km/h
Temperatura: 27°C
Heat Index: 28°C
Punkt Rosy: 18°C
Wilgotność Względna: 58%
Ciśnienie Względne: 1012 hPa
Podsumowanie: Bezchmurnie
Widoczność: większa niż 10 km
2022/08/19 08:30 EPKT 190830Z 15007KT CAVOK 27/18 Q1012
EPWA - Warsaw/Okecie, Poland
Odległość od stacji: Pn 240km
Aktualizacja: 19/08/2022 10:30
Bezchmurnie
Bezchmurnie
 Wiatr z WsPdWs
Wiatr: WsPdWs 20 km/h
Temperatura: 27°C
Heat Index: 29°C
Punkt Rosy: 20°C
Wilgotność Względna: 66%
Ciśnienie Względne: 1013 hPa
Podsumowanie: Bezchmurnie
Widoczność: większa niż 10 km
2022/08/19 08:30 EPWA 190830Z 12011KT 090V150 CAVOK 27/20 Q1013 NOSIG
 
EPLL - Lodz/Lublinek, Poland
Odległość od stacji: PnPnZd 218km
Aktualizacja: 19/08/2022 10:30
Bezchmurnie
Bezchmurnie
 Wiatr z WsPdWs
Wiatr: WsPdWs 9 km/h
Temperatura: 27°C
Heat Index: 28°C
Punkt Rosy: 19°C
Wilgotność Względna: 62%
Ciśnienie Względne: 1011 hPa
Podsumowanie: Bezchmurnie
Widoczność: większa niż 10 km
2022/08/19 08:30 EPLL 190830Z 11005KT 040V170 CAVOK 27/19 Q1011
EPWR - Wroclaw/Strachowice, Poland
Odległość od stacji: ZdPnZd 311km
Aktualizacja: 19/08/2022 10:30
Bezchmurnie
Bezchmurnie
 Wiatr z Zd
Wiatr: Zd 7 km/h
Temperatura: 27°C
Heat Index: 28°C
Punkt Rosy: 18°C
Wilgotność Względna: 58%
Ciśnienie Względne: 1010 hPa
Podsumowanie: Bezchmurnie
Widoczność: większa niż 10 km
2022/08/19 08:30 EPWR 190830Z 28004KT 240V360 CAVOK 27/18 Q1010
 
EPGD - Gdansk/Rebiechowo, Poland
Odległość od stacji: PnZd 553km
Aktualizacja: 19/08/2022 10:30
Bezchmurnie
Bezchmurnie
 Wiatr z WsPdWs
Wiatr: WsPdWs 19 km/h
Temperatura: 26°C
Punkt Rosy: 19°C
Wilgotność Względna: 65%
Ciśnienie Względne: 1012 hPa
Podsumowanie: Bezchmurnie
Widoczność: większa niż 10 km
2022/08/19 08:30 EPGD 190830Z 11010KT CAVOK 26/19 Q1012
EPSC - Szczecin/Goleniow, Poland
Odległość od stacji: ZdPnZd 635km
Aktualizacja: 19/08/2022 10:30
Małe zachmurzenie
Małe zachmurzenie
 Wiatr z PnZd
Wiatr: PnZd 15 km/h
Temperatura: 21°C
Punkt Rosy: 19°C
Wilgotność Względna: 88%
Ciśnienie Względne: 1010 hPa
Chmury: Małe zachmurzenie
Widoczność: 10 km
Szczegóły chmur: Małe zachmurzenie 366 m
2022/08/19 08:30 EPSC 190830Z 31008KT 9999 FEW012 21/19 Q1010